createdAt,value
2022-08-01T00:04:00.698Z,2.17
2022-08-01T00:09:07.899Z,2.10
2022-08-01T00:14:15.096Z,2.30
2022-08-01T00:19:22.234Z,2.07
2022-08-01T00:24:29.153Z,2.00
2022-08-01T00:30:13.586Z,2.20
2022-08-01T00:34:45.034Z,2.07
2022-08-01T00:39:52.171Z,1.97
2022-08-01T00:44:59.434Z,2.27
2022-08-01T00:50:07.421Z,2.10
2022-08-01T00:55:15.637Z,2.20
2022-08-01T01:00:27.357Z,2.17
2022-08-01T01:05:37.447Z,2.23
2022-08-01T01:10:43.537Z,2.10
2022-08-01T01:15:53.560Z,2.27
2022-08-01T01:21:03.467Z,2.30
2022-08-01T01:26:11.437Z,2.23
2022-08-01T01:31:21.320Z,2.40
2022-08-01T01:36:29.441Z,2.40
2022-08-01T01:41:39.191Z,2.27
2022-08-01T01:46:47.350Z,2.30
2022-08-01T01:52:02.722Z,2.30
2022-08-01T01:57:08.806Z,2.63
2022-08-01T02:02:18.369Z,2.20
2022-08-01T02:07:28.617Z,2.50
2022-08-01T02:12:38.355Z,2.30
2022-08-01T02:17:48.298Z,2.20
2022-08-01T02:22:58.394Z,2.20
2022-08-01T02:28:06.412Z,2.40
2022-08-01T02:33:16.417Z,2.40
2022-08-01T02:38:26.694Z,2.50
2022-08-01T02:43:36.454Z,2.40
2022-08-01T02:48:44.306Z,2.50
2022-08-01T02:53:54.080Z,2.40
2022-08-01T02:59:01.319Z,2.40
2022-08-01T03:04:09.085Z,2.20
2022-08-01T03:09:17.137Z,2.20
2022-08-01T03:14:26.470Z,2.40
2022-08-01T03:19:35.963Z,2.30
2022-08-01T03:24:45.275Z,2.50
2022-08-01T03:29:54.006Z,2.10
2022-08-01T03:35:01.609Z,2.30
2022-08-01T03:45:20.630Z,2.40
2022-08-01T03:50:29.579Z,2.40
2022-08-01T03:55:38.471Z,2.10
2022-08-01T04:00:46.238Z,2.30
2022-08-01T04:05:53.162Z,2.30
2022-08-01T04:11:00.334Z,2.60
2022-08-01T04:16:07.679Z,2.10
2022-08-01T04:21:15.513Z,2.07
2022-08-01T04:26:24.518Z,2.40
2022-08-01T04:31:33.022Z,2.40
2022-08-01T04:36:43.370Z,2.30
2022-08-01T04:41:53.107Z,2.60
2022-08-01T04:47:02.158Z,2.40
2022-08-01T04:52:12.678Z,2.40
2022-08-01T04:57:17.968Z,2.63
2022-08-01T05:02:25.351Z,2.20
2022-08-01T05:07:32.451Z,2.30
2022-08-01T05:12:41.337Z,2.27
2022-08-01T05:22:53.975Z,2.30
2022-08-01T05:28:01.032Z,2.33
2022-08-01T05:33:07.912Z,2.33
2022-08-01T05:38:15.001Z,2.50
2022-08-01T05:43:26.785Z,2.27
2022-08-01T05:48:31.646Z,2.40
2022-08-01T05:53:38.802Z,2.50
2022-08-01T05:58:46.051Z,2.40
2022-08-01T06:03:54.549Z,2.20
2022-08-01T06:09:01.602Z,2.30
2022-08-01T06:14:08.558Z,2.33
2022-08-01T06:19:15.501Z,2.60
2022-08-01T06:24:24.989Z,2.20
2022-08-01T06:29:33.616Z,2.33
2022-08-01T06:34:40.628Z,2.30
2022-08-01T06:39:47.986Z,2.30
2022-08-01T06:44:54.950Z,2.43
2022-08-01T06:50:02.855Z,2.13
2022-08-01T06:55:10.774Z,2.13
2022-08-01T07:00:20.163Z,2.20
2022-08-01T07:05:27.509Z,2.27
2022-08-01T07:10:34.344Z,2.40
2022-08-01T07:15:41.213Z,1.90
2022-08-01T07:20:52.746Z,2.03
2022-08-01T07:25:59.404Z,2.10
2022-08-01T07:36:11.210Z,2.00
2022-08-01T07:41:18.085Z,2.10
2022-08-01T07:46:24.932Z,2.17
2022-08-01T07:51:32.135Z,2.40
2022-08-01T07:56:38.965Z,2.40
2022-08-01T08:01:45.942Z,2.40
2022-08-01T08:06:54.683Z,2.70
2022-08-01T08:12:01.585Z,2.30
2022-08-01T08:17:10.140Z,2.60
2022-08-01T08:22:16.954Z,2.70
2022-08-01T08:27:23.968Z,2.40
2022-08-01T08:32:30.858Z,2.47
2022-08-01T08:37:42.828Z,2.50
2022-08-01T08:42:49.046Z,2.40
2022-08-01T08:47:58.209Z,2.40
2022-08-01T08:53:06.525Z,2.40
2022-08-01T08:58:17.113Z,2.30
2022-08-01T09:03:24.408Z,2.70
2022-08-01T09:08:31.834Z,2.27
2022-08-01T09:13:38.789Z,2.20
2022-08-01T09:18:52.827Z,2.40
2022-08-01T09:23:58.769Z,2.30
2022-08-01T09:29:10.467Z,2.70
2022-08-01T09:34:20.370Z,2.53
2022-08-01T09:39:28.311Z,2.40
2022-08-01T09:44:39.901Z,2.50
2022-08-01T09:49:51.883Z,2.50
2022-08-01T09:54:56.761Z,2.43
2022-08-01T10:00:06.046Z,2.80
2022-08-01T10:05:18.805Z,2.47
2022-08-01T10:10:23.329Z,2.47
2022-08-01T10:15:37.465Z,2.77
2022-08-01T10:20:42.766Z,2.23
2022-08-01T10:25:56.110Z,2.40
2022-08-01T10:31:05.371Z,2.47
2022-08-01T10:36:14.235Z,2.50
2022-08-01T10:41:22.244Z,2.50
2022-08-01T10:46:29.772Z,2.30
2022-08-01T10:51:54.301Z,2.20
2022-08-01T10:56:52.235Z,2.30
2022-08-01T11:02:02.381Z,2.37
2022-08-01T11:07:11.656Z,2.37
2022-08-01T11:12:24.562Z,2.10
2022-08-01T11:17:38.097Z,2.10
2022-08-01T11:22:45.835Z,2.45
2022-08-01T11:27:56.083Z,2.30
2022-08-01T11:33:11.359Z,2.20
2022-08-01T11:38:15.823Z,2.17
2022-08-01T11:43:24.247Z,2.10
2022-08-01T11:48:31.596Z,2.35
2022-08-01T11:53:41.985Z,2.17
2022-08-01T11:58:50.610Z,2.22
2022-08-01T12:03:58.990Z,2.40
2022-08-01T12:09:12.170Z,2.12
2022-08-01T12:14:22.076Z,1.98
2022-08-01T12:19:29.324Z,1.87
2022-08-01T12:24:37.953Z,2.00
2022-08-01T12:29:47.406Z,1.80
2022-08-01T12:34:56.570Z,1.62
2022-08-01T12:40:08.053Z,1.65
2022-08-01T12:45:18.163Z,2.00
2022-08-01T12:50:29.506Z,1.75
2022-08-01T12:55:39.418Z,2.00
2022-08-01T13:00:50.720Z,1.70
2022-08-01T13:06:00.129Z,1.90
2022-08-01T13:11:11.015Z,1.85
2022-08-01T13:16:30.331Z,1.65
2022-08-01T13:21:52.909Z,1.95
2022-08-01T13:26:44.563Z,1.90
2022-08-01T13:31:52.105Z,1.90
2022-08-01T13:36:59.088Z,2.00
2022-08-01T13:42:06.495Z,1.98
2022-08-01T13:47:15.405Z,1.80
2022-08-01T13:52:22.611Z,1.80
2022-08-01T13:57:36.695Z,2.00
2022-08-01T14:03:10.129Z,1.85
2022-08-01T14:08:29.972Z,1.90
2022-08-01T14:13:39.720Z,1.77
2022-08-01T14:18:50.119Z,2.12
2022-08-01T14:23:57.473Z,2.40
2022-08-01T14:29:04.915Z,1.98
2022-08-01T14:34:11.734Z,1.90
2022-08-01T14:39:19.553Z,2.17
2022-08-01T14:44:28.144Z,2.02
2022-08-01T14:49:39.226Z,1.92
2022-08-01T14:54:43.959Z,2.10
2022-08-01T14:59:51.405Z,1.92
2022-08-01T15:04:58.534Z,2.00
2022-08-01T15:10:07.263Z,2.02
2022-08-01T15:15:14.120Z,2.08
2022-08-01T15:20:21.751Z,2.00
2022-08-01T15:25:40.843Z,1.92
2022-08-01T15:30:39.175Z,2.30
2022-08-01T15:35:46.132Z,2.17
2022-08-01T15:40:53.648Z,2.15
2022-08-01T15:46:01.475Z,1.90
2022-08-01T15:51:08.431Z,1.75
2022-08-01T15:56:16.296Z,1.98
2022-08-01T16:01:23.550Z,1.98
2022-08-01T16:06:30.912Z,2.17
2022-08-01T16:11:43.053Z,1.87
2022-08-01T16:16:48.121Z,1.80
2022-08-01T16:21:55.276Z,1.90
2022-08-01T16:27:02.209Z,1.90
2022-08-01T16:32:15.807Z,1.70
2022-08-01T16:37:18.514Z,1.82
2022-08-01T16:42:27.715Z,2.10
2022-08-01T16:47:34.255Z,1.80
2022-08-01T16:52:41.672Z,1.70
2022-08-01T16:57:49.498Z,2.05
2022-08-01T17:02:56.534Z,1.90
2022-08-01T17:08:06.891Z,1.70
2022-08-01T17:13:13.979Z,1.87
2022-08-01T17:18:20.972Z,1.80
2022-08-01T17:23:28.163Z,1.83
2022-08-01T17:28:35.599Z,1.57
2022-08-01T17:33:44.416Z,2.03
2022-08-01T17:38:52.895Z,1.90
2022-08-01T17:44:00.238Z,1.62
2022-08-01T17:49:07.536Z,1.62
2022-08-01T17:54:15.147Z,1.50
2022-08-01T17:59:22.649Z,1.43
2022-08-01T18:04:29.839Z,1.53
2022-08-01T18:09:43.882Z,2.27
2022-08-01T18:14:47.446Z,1.70
2022-08-01T18:19:56.743Z,1.70
2022-08-01T18:25:08.795Z,1.60
2022-08-01T18:30:15.291Z,1.60
2022-08-01T18:35:24.233Z,1.70
2022-08-01T18:40:31.624Z,1.70
2022-08-01T18:45:42.702Z,1.50
2022-08-01T18:50:47.351Z,1.53
2022-08-01T18:55:54.769Z,1.60
2022-08-01T19:01:01.926Z,1.40
2022-08-01T19:06:18.552Z,1.60
2022-08-01T19:11:25.695Z,1.60
2022-08-01T19:16:33.012Z,1.57
2022-08-01T19:21:44.771Z,1.70
2022-08-01T19:26:52.802Z,1.60
2022-08-01T19:32:02.656Z,1.53
2022-08-01T19:37:10.919Z,1.50
2022-08-01T19:42:21.830Z,1.43
2022-08-01T19:47:51.851Z,1.50
2022-08-01T19:52:40.163Z,1.50
2022-08-01T19:58:10.603Z,1.40
2022-08-01T20:03:00.633Z,1.33
2022-08-01T20:08:08.315Z,1.60
2022-08-01T20:13:16.304Z,1.40
2022-08-01T20:18:24.331Z,1.50
2022-08-01T20:23:33.400Z,1.40
2022-08-01T20:28:43.264Z,1.50
2022-08-01T20:33:51.360Z,1.40
2022-08-01T20:39:00.713Z,1.60
2022-08-01T20:44:09.909Z,1.50
2022-08-01T20:49:17.977Z,1.47
2022-08-01T20:54:27.126Z,1.30
2022-08-01T20:59:39.658Z,1.57
2022-08-01T21:04:48.451Z,1.40
2022-08-01T21:09:58.390Z,1.40
2022-08-01T21:15:05.844Z,1.47
2022-08-01T21:20:15.784Z,1.73
2022-08-01T21:25:25.748Z,1.40
2022-08-01T21:30:35.450Z,1.47
2022-08-01T21:35:43.824Z,1.40
2022-08-01T21:40:52.882Z,1.43
2022-08-01T21:46:01.376Z,1.50
2022-08-01T21:51:10.562Z,1.40
2022-08-01T21:56:20.584Z,1.40
2022-08-01T22:01:31.435Z,1.30
2022-08-01T22:06:40.764Z,1.53
2022-08-01T22:12:01.242Z,1.40
2022-08-01T22:16:59.783Z,1.60
2022-08-01T22:22:44.360Z,1.37
2022-08-01T22:27:19.941Z,1.50
2022-08-01T22:32:29.355Z,1.50
2022-08-01T22:37:57.130Z,1.47
2022-08-01T22:42:47.797Z,1.50
2022-08-01T22:47:55.795Z,1.50
2022-08-01T22:53:05.986Z,1.37
2022-08-01T22:58:14.590Z,1.50
2022-08-01T23:03:24.899Z,1.60
2022-08-01T23:08:33.335Z,1.40
2022-08-01T23:13:40.268Z,1.47
2022-08-01T23:18:47.491Z,1.80
2022-08-01T23:23:56.196Z,1.60
2022-08-01T23:29:03.564Z,1.70
2022-08-01T23:34:10.449Z,1.50
2022-08-01T23:39:17.500Z,1.50
2022-08-01T23:44:24.751Z,1.67
2022-08-01T23:49:31.938Z,1.70
2022-08-01T23:54:38.860Z,1.80
2022-08-01T23:59:53.617Z,1.90
